createdAt,value
2022-08-05T00:02:22.184Z,98429.16
2022-08-05T00:04:55.165Z,98438.56
2022-08-05T00:07:59.663Z,98431.53
2022-08-05T00:10:10.210Z,98432.03
2022-08-05T00:12:55.808Z,98439.56
2022-08-05T00:15:55.042Z,98440.06
2022-08-05T00:18:21.359Z,98433.91
2022-08-05T00:20:50.254Z,98422.97
2022-08-05T00:23:17.361Z,98430.16
2022-08-05T00:26:04.609Z,98421.97
2022-08-05T00:28:31.302Z,98419.22
2022-08-05T00:31:02.870Z,98419.22
2022-08-05T00:34:56.994Z,98419.41
2022-08-05T00:37:12.294Z,98424.19
2022-08-05T00:39:05.577Z,98429.13
2022-08-05T00:41:51.858Z,98419.25
2022-08-05T00:44:30.562Z,98419.06
2022-08-05T00:47:01.651Z,98416.84
2022-08-05T00:49:32.565Z,98414.81
2022-08-05T00:52:00.247Z,98415.47
2022-08-05T00:54:28.058Z,98415.31
2022-08-05T00:56:56.960Z,98411.53
2022-08-05T00:59:23.878Z,98406.59
2022-08-05T01:01:51.194Z,98402.16
2022-08-05T01:04:20.089Z,98406.06
2022-08-05T01:06:53.683Z,98415.81
2022-08-05T01:09:22.714Z,98408.81
2022-08-05T01:11:53.765Z,98409.13
2022-08-05T01:14:37.282Z,98403.66
2022-08-05T01:17:10.896Z,98401.94
2022-08-05T01:20:07.804Z,98400.41
2022-08-05T01:22:59.778Z,98393.72
2022-08-05T01:26:01.264Z,98384.31
2022-08-05T01:28:37.193Z,98385.00
2022-08-05T01:31:28.072Z,98389.41
2022-08-05T01:34:00.951Z,98387.19
2022-08-05T01:36:32.783Z,98392.13
2022-08-05T01:39:01.349Z,98393.81
2022-08-05T01:41:32.765Z,98383.41
2022-08-05T01:44:02.217Z,98380.50
2022-08-05T01:46:46.166Z,98375.06
2022-08-05T01:49:23.742Z,98378.47
2022-08-05T01:51:58.398Z,98381.19
2022-08-05T01:54:31.831Z,98376.44
2022-08-05T01:58:11.255Z,98372.81
2022-08-05T01:59:51.761Z,98371.81
2022-08-05T02:02:26.255Z,98368.41
2022-08-05T02:04:59.985Z,98378.94
2022-08-05T02:07:27.232Z,98373.31
2022-08-05T02:09:57.709Z,98365.81
2022-08-05T02:12:37.565Z,98368.31
2022-08-05T02:15:12.281Z,98364.72
2022-08-05T02:18:32.611Z,98368.09
2022-08-05T02:20:58.682Z,98365.53
2022-08-05T02:23:33.742Z,98360.69
2022-08-05T02:26:05.347Z,98365.59
2022-08-05T02:28:38.401Z,98362.19
2022-08-05T02:31:14.777Z,98358.25
2022-08-05T02:33:57.236Z,98355.72
2022-08-05T02:36:27.524Z,98358.06
2022-08-05T02:38:57.588Z,98344.41
2022-08-05T02:41:28.998Z,98360.38
2022-08-05T02:44:13.386Z,98351.66
2022-08-05T02:46:53.807Z,98353.84
2022-08-05T02:49:36.448Z,98350.28
2022-08-05T02:52:11.603Z,98343.97
2022-08-05T02:54:42.803Z,98346.72
2022-08-05T02:58:12.160Z,98342.25
2022-08-05T03:00:09.941Z,98355.88
2022-08-05T03:02:42.803Z,98352.63
2022-08-05T03:05:11.287Z,98352.97
2022-08-05T03:08:06.648Z,98345.63
2022-08-05T03:10:28.004Z,98352.78
2022-08-05T03:12:55.004Z,98346.31
2022-08-05T03:15:24.845Z,98343.44
2022-08-05T03:17:55.815Z,98347.31
2022-08-05T03:20:23.633Z,98346.31
2022-08-05T03:22:52.238Z,98348.75
2022-08-05T03:25:34.137Z,98348.03
2022-08-05T03:28:08.769Z,98350.94
2022-08-05T03:30:38.339Z,98346.72
2022-08-05T03:33:08.358Z,98337.50
2022-08-05T03:35:41.283Z,98342.94
2022-08-05T03:38:11.845Z,98344.50
2022-08-05T03:40:45.218Z,98343.09
2022-08-05T03:44:08.168Z,98345.13
2022-08-05T03:46:02.949Z,98342.59
2022-08-05T03:48:30.833Z,98337.84
2022-08-05T03:52:36.559Z,98349.25
2022-08-05T03:56:01.887Z,98343.09
2022-08-05T03:57:45.742Z,98344.13
2022-08-05T04:00:15.520Z,98347.69
2022-08-05T04:02:52.007Z,98341.94
2022-08-05T04:05:33.963Z,98345.38
2022-08-05T04:08:29.628Z,98341.44
2022-08-05T04:10:54.987Z,98343.72
2022-08-05T04:13:21.942Z,98336.56
2022-08-05T04:16:03.232Z,98350.75
2022-08-05T04:18:34.347Z,98348.94
2022-08-05T04:21:02.254Z,98344.56
2022-08-05T04:24:05.452Z,98347.16
2022-08-05T04:26:18.487Z,98339.69
2022-08-05T04:28:50.782Z,98346.03
2022-08-05T04:31:18.131Z,98342.31
2022-08-05T04:34:18.104Z,98345.91
2022-08-05T04:36:46.304Z,98346.78
2022-08-05T04:39:21.068Z,98342.19
2022-08-05T04:41:50.965Z,98342.19
2022-08-05T04:44:29.134Z,98341.41
2022-08-05T04:46:56.752Z,98343.59
2022-08-05T04:49:38.722Z,98339.66
2022-08-05T04:52:11.838Z,98337.63
2022-08-05T04:54:38.601Z,98332.50
2022-08-05T04:57:05.362Z,98338.50
2022-08-05T04:59:36.838Z,98332.50
2022-08-05T05:02:41.478Z,98335.41
2022-08-05T05:05:01.899Z,98331.47
2022-08-05T05:07:32.846Z,98335.22
2022-08-05T05:10:05.520Z,98330.78
2022-08-05T05:12:33.366Z,98328.88
2022-08-05T05:15:03.869Z,98333.47
2022-08-05T05:17:55.656Z,98333.28
2022-08-05T05:20:28.766Z,98328.34
2022-08-05T05:22:56.191Z,98328.03
2022-08-05T05:25:40.390Z,98335.00
2022-08-05T05:28:07.777Z,98338.59
2022-08-05T05:30:36.248Z,98331.75
2022-08-05T05:33:14.045Z,98346.97
2022-08-05T05:35:47.085Z,98345.41
2022-08-05T05:38:22.806Z,98350.69
2022-08-05T05:40:54.169Z,98348.75
2022-08-05T05:43:54.078Z,98347.00
2022-08-05T05:46:17.360Z,98340.81
2022-08-05T05:48:47.841Z,98344.91
2022-08-05T05:51:19.471Z,98346.09
2022-08-05T05:53:58.058Z,98347.94
2022-08-05T05:56:32.528Z,98343.28
2022-08-05T05:59:10.024Z,98347.53
2022-08-05T06:01:57.563Z,98337.88
2022-08-05T06:04:25.148Z,98341.22
2022-08-05T06:06:52.820Z,98341.66
2022-08-05T06:09:25.428Z,98335.94
2022-08-05T06:12:01.696Z,98341.84
2022-08-05T06:14:30.556Z,98331.66
2022-08-05T06:16:57.912Z,98332.28
2022-08-05T06:19:26.181Z,98332.19
2022-08-05T06:22:01.600Z,98338.25
2022-08-05T06:24:28.276Z,98331.84
2022-08-05T06:26:55.098Z,98333.47
2022-08-05T06:29:43.085Z,98330.09
2022-08-05T06:32:21.239Z,98326.69
2022-08-05T06:34:58.002Z,98329.84
2022-08-05T06:37:56.671Z,98336.53
2022-08-05T06:40:13.962Z,98333.91
2022-08-05T06:42:45.777Z,98332.06
2022-08-05T06:45:20.698Z,98335.56
2022-08-05T06:48:46.891Z,98337.81
2022-08-05T06:50:35.327Z,98337.50
2022-08-05T06:53:11.284Z,98339.78
2022-08-05T06:55:38.548Z,98340.50
2022-08-05T06:58:20.162Z,98334.03
2022-08-05T07:00:59.646Z,98335.41
2022-08-05T07:03:32.404Z,98330.44
2022-08-05T07:06:06.196Z,98329.44
2022-08-05T07:08:42.919Z,98328.44
2022-08-05T07:11:15.888Z,98326.41
2022-08-05T07:14:02.017Z,98324.00
2022-08-05T07:17:58.330Z,98322.19
2022-08-05T07:22:29.134Z,98330.38
2022-08-05T07:25:22.444Z,98326.47
2022-08-05T07:27:58.047Z,98326.13
2022-08-05T07:30:38.416Z,98331.91
2022-08-05T07:33:10.653Z,98322.88
2022-08-05T07:36:02.606Z,98328.00
2022-08-05T07:38:34.399Z,98333.38
2022-08-05T07:42:07.027Z,98329.97
2022-08-05T07:43:56.908Z,98325.63
2022-08-05T07:46:27.802Z,98325.22
2022-08-05T07:49:04.973Z,98328.41
2022-08-05T07:51:37.421Z,98326.72
2022-08-05T07:54:08.348Z,98328.63
2022-08-05T07:56:39.050Z,98320.56
2022-08-05T07:59:38.393Z,98326.50
2022-08-05T08:02:17.024Z,98323.41
2022-08-05T08:04:46.529Z,98324.22
2022-08-05T08:07:15.244Z,98317.44
2022-08-05T08:09:42.453Z,98323.38
2022-08-05T08:12:33.508Z,98323.38
2022-08-05T08:14:56.702Z,98321.88
2022-08-05T08:17:29.110Z,98316.78
2022-08-05T08:20:21.496Z,98327.38
2022-08-05T08:22:46.200Z,98323.56
2022-08-05T08:25:16.266Z,98322.00
2022-08-05T08:27:51.300Z,98319.59
2022-08-05T08:30:34.160Z,98325.47
2022-08-05T08:33:13.724Z,98325.91
2022-08-05T08:35:52.796Z,98330.69
2022-08-05T08:38:35.875Z,98330.31
2022-08-05T08:41:14.248Z,98328.09
2022-08-05T08:45:19.919Z,98327.31
2022-08-05T08:46:31.941Z,98334.56
2022-08-05T08:49:17.403Z,98327.59
2022-08-05T08:52:03.909Z,98322.94
2022-08-05T08:54:34.166Z,98321.59
2022-08-05T08:57:05.614Z,98323.25
2022-08-05T08:59:41.882Z,98327.63
2022-08-05T09:02:16.567Z,98322.19
2022-08-05T09:04:58.235Z,98319.06
2022-08-05T09:07:39.454Z,98329.16
2022-08-05T09:10:20.817Z,98327.47
2022-08-05T09:12:54.107Z,98318.34
2022-08-05T09:15:22.291Z,98313.59
2022-08-05T09:17:53.109Z,98317.06
2022-08-05T09:20:36.163Z,98315.09
2022-08-05T09:23:19.494Z,98305.00
2022-08-05T09:26:01.830Z,98299.28
2022-08-05T09:28:33.553Z,98297.78
2022-08-05T09:31:22.299Z,98299.22
2022-08-05T09:34:03.944Z,98296.16
2022-08-05T09:37:00.639Z,98286.19
2022-08-05T09:39:45.037Z,98289.97
2022-08-05T09:42:24.352Z,98292.63
2022-08-05T09:45:03.217Z,98288.38
2022-08-05T09:47:55.611Z,98284.44
2022-08-05T09:50:38.489Z,98278.47
2022-08-05T09:53:15.760Z,98285.69
2022-08-05T09:56:12.620Z,98277.75
2022-08-05T09:58:42.056Z,98284.84
2022-08-05T10:01:14.801Z,98284.97
2022-08-05T10:03:58.483Z,98285.09
2022-08-05T10:06:31.063Z,98281.63
2022-08-05T10:09:27.853Z,98277.34
2022-08-05T10:11:55.357Z,98286.09
2022-08-05T10:14:32.118Z,98274.91
2022-08-05T10:17:37.387Z,98272.03
2022-08-05T10:20:09.764Z,98273.97
2022-08-05T10:22:38.073Z,98274.44
2022-08-05T10:25:10.413Z,98278.75
2022-08-05T10:28:13.146Z,98275.91
2022-08-05T10:32:46.714Z,98264.84
2022-08-05T10:33:18.456Z,98268.56
2022-08-05T10:35:59.641Z,98265.03
2022-08-05T10:38:28.943Z,98250.00
2022-08-05T10:41:23.251Z,98257.34
2022-08-05T10:44:11.478Z,98260.59
2022-08-05T10:46:54.400Z,98259.72
2022-08-05T10:49:26.922Z,98258.69
2022-08-05T10:52:00.411Z,98258.66
2022-08-05T10:55:10.258Z,98249.16
2022-08-05T10:57:44.729Z,98253.69
2022-08-05T11:00:19.112Z,98256.47
2022-08-05T11:03:24.924Z,98254.94
2022-08-05T11:06:15.266Z,98252.50
2022-08-05T11:09:45.224Z,98250.91
2022-08-05T11:12:27.168Z,98250.47
2022-08-05T11:16:00.174Z,98245.91
2022-08-05T11:18:34.064Z,98240.84
2022-08-05T11:21:06.380Z,98238.69
2022-08-05T11:24:03.031Z,98244.56
2022-08-05T11:26:33.379Z,98241.53
2022-08-05T11:29:11.532Z,98236.13
2022-08-05T11:31:58.243Z,98239.22
2022-08-05T11:34:39.032Z,98232.31
2022-08-05T11:38:28.479Z,98243.88
2022-08-05T11:39:55.230Z,98233.91
2022-08-05T11:42:28.096Z,98228.16
2022-08-05T11:45:05.465Z,98236.09
2022-08-05T11:47:49.582Z,98237.81
2022-08-05T11:50:17.964Z,98244.91
2022-08-05T11:52:48.446Z,98237.31
2022-08-05T11:55:16.352Z,98242.13
2022-08-05T11:58:09.352Z,98237.22
2022-08-05T12:00:38.051Z,98237.22
2022-08-05T12:03:24.024Z,98236.19
2022-08-05T12:06:01.040Z,98240.22
2022-08-05T12:08:27.805Z,98236.66
2022-08-05T12:11:00.108Z,98226.41
2022-08-05T12:13:48.593Z,98220.56
2022-08-05T12:16:19.491Z,98213.50
2022-08-05T12:18:52.406Z,98216.72
2022-08-05T12:21:29.794Z,98216.44
2022-08-05T12:24:06.915Z,98216.72
2022-08-05T12:26:39.827Z,98216.81
2022-08-05T12:29:16.236Z,98219.31
2022-08-05T12:31:52.997Z,98220.59
2022-08-05T12:34:23.923Z,98207.31
2022-08-05T12:36:53.852Z,98198.75
2022-08-05T12:39:20.910Z,98199.25
2022-08-05T12:41:48.691Z,98194.09
2022-08-05T12:44:21.650Z,98202.44
2022-08-05T12:47:00.361Z,98201.31
2022-08-05T12:50:03.537Z,98196.09
2022-08-05T12:52:38.000Z,98193.91
2022-08-05T12:55:21.767Z,98185.41
2022-08-05T12:58:49.515Z,98190.22
2022-08-05T13:02:01.238Z,98187.22
2022-08-05T13:03:32.205Z,98187.50
2022-08-05T13:06:00.829Z,98192.69
2022-08-05T13:08:30.208Z,98181.34
2022-08-05T13:11:05.740Z,98188.09
2022-08-05T13:14:05.171Z,98177.47
2022-08-05T13:16:19.996Z,98183.88
2022-08-05T13:18:59.524Z,98174.69
2022-08-05T13:21:37.641Z,98178.69
2022-08-05T13:24:08.934Z,98165.75
2022-08-05T13:26:35.948Z,98160.81
2022-08-05T13:29:02.872Z,98176.22
2022-08-05T13:32:03.451Z,98167.38
2022-08-05T13:34:21.306Z,98169.22
2022-08-05T13:36:51.122Z,98175.66
2022-08-05T13:40:12.752Z,98169.56
2022-08-05T13:42:04.658Z,98166.09
2022-08-05T13:44:34.817Z,98160.78
2022-08-05T13:47:08.305Z,98158.72
2022-08-05T13:49:35.683Z,98163.34
2022-08-05T13:52:12.708Z,98160.47
2022-08-05T13:54:40.126Z,98162.47
2022-08-05T13:57:07.140Z,98158.63
2022-08-05T13:59:33.860Z,98158.94
2022-08-05T14:02:06.177Z,98152.09
2022-08-05T14:05:00.720Z,98156.63
2022-08-05T14:08:00.832Z,98160.19
2022-08-05T14:10:30.713Z,98156.28
2022-08-05T14:12:58.392Z,98162.06
2022-08-05T14:16:05.573Z,98147.88
2022-08-05T14:18:15.295Z,98144.00
2022-08-05T14:20:47.869Z,98154.13
2022-08-05T14:23:24.568Z,98146.91
2022-08-05T14:25:58.156Z,98143.47
2022-08-05T14:28:27.764Z,98141.69
2022-08-05T14:30:56.561Z,98143.44
2022-08-05T14:33:24.023Z,98142.66
2022-08-05T14:35:52.299Z,98135.25
2022-08-05T14:38:33.126Z,98132.88
2022-08-05T14:41:07.661Z,98125.34
2022-08-05T14:43:57.648Z,98118.69
2022-08-05T14:46:28.698Z,98134.59
2022-08-05T14:48:59.034Z,98132.78
2022-08-05T14:51:31.251Z,98129.69
2022-08-05T14:54:26.903Z,98120.25
2022-08-05T14:56:47.209Z,98127.38
2022-08-05T14:59:15.303Z,98120.66
2022-08-05T15:01:47.947Z,98127.63
2022-08-05T15:04:17.278Z,98121.03
2022-08-05T15:06:49.239Z,98118.59
2022-08-05T15:09:52.069Z,98122.31
2022-08-05T15:12:05.586Z,98120.41
2022-08-05T15:14:34.525Z,98118.78
2022-08-05T15:17:04.912Z,98124.06
2022-08-05T15:19:32.544Z,98121.00
2022-08-05T15:22:01.398Z,98120.94
2022-08-05T15:24:28.990Z,98118.09
2022-08-05T15:26:55.879Z,98120.25
2022-08-05T15:29:23.664Z,98111.25
2022-08-05T15:31:56.667Z,98112.09
2022-08-05T15:34:32.141Z,98106.47
2022-08-05T15:37:04.897Z,98101.34
2022-08-05T15:41:01.897Z,98097.94
2022-08-05T15:42:54.521Z,98107.66
2022-08-05T15:45:09.884Z,98103.16
2022-08-05T15:47:36.701Z,98101.13
2022-08-05T15:50:04.367Z,98100.44
2022-08-05T15:52:53.460Z,98097.56
2022-08-05T15:55:25.008Z,98098.38
2022-08-05T15:58:16.354Z,98091.41
2022-08-05T16:01:03.555Z,98103.09
2022-08-05T16:03:32.597Z,98100.81
2022-08-05T16:06:00.618Z,98100.19
2022-08-05T16:08:30.826Z,98097.31
2022-08-05T16:10:58.534Z,98103.75
2022-08-05T16:13:34.359Z,98095.06
2022-08-05T16:16:05.480Z,98092.22
2022-08-05T16:18:35.907Z,98091.59
2022-08-05T16:21:19.010Z,98100.75
2022-08-05T16:23:54.172Z,98094.28
2022-08-05T16:26:26.378Z,98091.75
2022-08-05T16:28:55.514Z,98091.69
2022-08-05T16:31:23.067Z,98087.75
2022-08-05T16:33:52.401Z,98088.81
2022-08-05T16:36:23.829Z,98087.31
2022-08-05T16:38:55.071Z,98102.09
2022-08-05T16:42:14.592Z,98095.09
2022-08-05T16:44:11.567Z,98092.53
2022-08-05T16:46:41.189Z,98091.34
2022-08-05T16:49:22.668Z,98088.84
2022-08-05T16:51:51.057Z,98084.63
2022-08-05T16:54:27.503Z,98088.31
2022-08-05T16:56:58.661Z,98088.63
2022-08-05T16:59:25.405Z,98091.16
2022-08-05T17:01:56.376Z,98088.63
2022-08-05T17:04:27.965Z,98082.50
2022-08-05T17:07:03.434Z,98082.41
2022-08-05T17:09:57.678Z,98084.31
2022-08-05T17:12:51.781Z,98081.75
2022-08-05T17:15:15.589Z,98077.72
2022-08-05T17:17:44.010Z,98089.34
2022-08-05T17:20:14.847Z,98090.59
2022-08-05T17:22:43.126Z,98090.19
2022-08-05T17:25:33.786Z,98082.81
2022-08-05T17:27:58.970Z,98088.78
2022-08-05T17:30:28.322Z,98083.06
2022-08-05T17:32:56.919Z,98083.97
2022-08-05T17:35:23.651Z,98088.56
2022-08-05T17:37:51.455Z,98087.53
2022-08-05T17:40:18.974Z,98092.97
2022-08-05T17:42:51.872Z,98098.59
2022-08-05T17:45:38.075Z,98097.53
2022-08-05T17:48:08.221Z,98105.97
2022-08-05T17:50:35.081Z,98106.88
2022-08-05T17:53:04.861Z,98099.44
2022-08-05T17:55:38.201Z,98094.78
2022-08-05T17:58:13.391Z,98097.56
2022-08-05T18:00:44.947Z,98095.69
2022-08-05T18:03:33.440Z,98113.47
2022-08-05T18:06:05.083Z,98105.91
2022-08-05T18:08:33.805Z,98099.78
2022-08-05T18:11:03.232Z,98103.88
2022-08-05T18:13:36.465Z,98105.56
2022-08-05T18:16:04.154Z,98113.28
2022-08-05T18:18:33.759Z,98108.31
2022-08-05T18:21:13.354Z,98108.09
2022-08-05T18:23:47.231Z,98114.22
2022-08-05T18:26:14.050Z,98118.44
2022-08-05T18:28:46.340Z,98111.75
2022-08-05T18:31:13.390Z,98119.59
2022-08-05T18:33:47.062Z,98118.66
2022-08-05T18:36:16.951Z,98117.56
2022-08-05T18:38:46.608Z,98115.22
2022-08-05T18:41:57.291Z,98123.09
2022-08-05T18:44:06.568Z,98130.94
2022-08-05T18:46:34.684Z,98126.19
2022-08-05T18:49:21.799Z,98125.63
2022-08-05T18:52:08.507Z,98126.44
2022-08-05T18:54:41.395Z,98128.84
2022-08-05T18:57:15.205Z,98136.63
2022-08-05T19:00:01.822Z,98128.56
2022-08-05T19:02:29.287Z,98129.28
2022-08-05T19:05:02.445Z,98130.19
2022-08-05T19:07:48.221Z,98124.72
2022-08-05T19:10:19.114Z,98129.22
2022-08-05T19:12:55.176Z,98126.31
2022-08-05T19:15:57.844Z,98125.75
2022-08-05T19:18:13.431Z,98143.53
2022-08-05T19:20:48.617Z,98149.75
2022-08-05T19:24:05.881Z,98143.63
2022-08-05T19:26:02.893Z,98151.34
2022-08-05T19:28:32.854Z,98147.59
2022-08-05T19:31:01.277Z,98152.53
2022-08-05T19:33:36.341Z,98157.06
2022-08-05T19:36:06.591Z,98168.13
2022-08-05T19:38:36.677Z,98166.25
2022-08-05T19:41:07.016Z,98163.53
2022-08-05T19:44:07.073Z,98151.00
2022-08-05T19:46:30.038Z,98163.53
2022-08-05T19:49:03.433Z,98162.50
2022-08-05T19:52:05.439Z,98154.25
2022-08-05T19:54:26.761Z,98156.84
2022-08-05T19:57:02.135Z,98150.47
2022-08-05T20:00:00.647Z,98160.22
2022-08-05T20:02:17.868Z,98154.09
2022-08-05T20:04:46.029Z,98153.00
2022-08-05T20:07:14.099Z,98157.69
2022-08-05T20:09:55.193Z,98150.72
2022-08-05T20:12:24.577Z,98148.16
2022-08-05T20:14:52.997Z,98152.44
2022-08-05T20:17:23.544Z,98162.19
2022-08-05T20:19:51.116Z,98156.69
2022-08-05T20:22:24.107Z,98152.44
2022-08-05T20:24:53.817Z,98151.38
2022-08-05T20:27:26.897Z,98151.41
2022-08-05T20:29:57.602Z,98139.94
2022-08-05T20:32:26.786Z,98151.13
2022-08-05T20:34:54.128Z,98141.19
2022-08-05T20:38:04.678Z,98143.53
2022-08-05T20:40:09.144Z,98151.13
2022-08-05T20:42:35.943Z,98149.22
2022-08-05T20:45:04.224Z,98147.31
2022-08-05T20:47:32.712Z,98153.66
2022-08-05T20:50:02.113Z,98159.16
2022-08-05T20:52:29.747Z,98153.00
2022-08-05T20:54:59.474Z,98157.69
2022-08-05T20:57:43.894Z,98157.88
2022-08-05T21:00:40.743Z,98160.63
2022-08-05T21:03:06.123Z,98165.72
2022-08-05T21:05:47.937Z,98165.06
2022-08-05T21:08:21.347Z,98164.88
2022-08-05T21:10:55.190Z,98168.03
2022-08-05T21:13:26.133Z,98168.47
2022-08-05T21:16:12.563Z,98178.81
2022-08-05T21:18:39.280Z,98172.03
2022-08-05T21:21:11.865Z,98179.44
2022-08-05T21:23:38.888Z,98175.84
2022-08-05T21:26:12.508Z,98185.34
2022-08-05T21:28:47.905Z,98180.06
2022-08-05T21:31:18.201Z,98188.50
2022-08-05T21:33:47.522Z,98181.47
2022-08-05T21:36:27.542Z,98179.81
2022-08-05T21:38:56.950Z,98181.91
2022-08-05T21:41:26.089Z,98179.38
2022-08-05T21:44:01.474Z,98182.31
2022-08-05T21:46:31.287Z,98180.63
2022-08-05T21:48:59.872Z,98173.41
2022-08-05T21:52:23.004Z,98176.59
2022-08-05T21:54:13.395Z,98183.56
2022-08-05T21:56:44.461Z,98185.25
2022-08-05T21:59:24.120Z,98186.31
2022-08-05T22:01:54.529Z,98194.34
2022-08-05T22:04:25.354Z,98192.00
2022-08-05T22:06:52.646Z,98179.06
2022-08-05T22:09:21.008Z,98186.47
2022-08-05T22:11:48.628Z,98186.28
2022-08-05T22:14:35.029Z,98183.28
2022-08-05T22:17:07.005Z,98187.25
2022-08-05T22:20:00.867Z,98178.38
2022-08-05T22:22:27.987Z,98185.13
2022-08-05T22:25:21.849Z,98186.41
2022-08-05T22:28:09.298Z,98190.38
2022-08-05T22:30:56.187Z,98194.59
2022-08-05T22:33:55.479Z,98192.47
2022-08-05T22:36:14.455Z,98183.59
2022-08-05T22:38:42.671Z,98186.53
2022-08-05T22:41:10.319Z,98187.78
2022-08-05T22:43:40.916Z,98188.19
2022-08-05T22:46:13.630Z,98180.97
2022-08-05T22:48:50.135Z,98180.91
2022-08-05T22:51:23.229Z,98180.03
2022-08-05T22:54:04.367Z,98178.28
2022-08-05T22:56:31.506Z,98173.19
2022-08-05T22:59:04.617Z,98187.53
2022-08-05T23:01:50.977Z,98181.19
2022-08-05T23:04:33.223Z,98180.75
2022-08-05T23:07:00.199Z,98174.16
2022-08-05T23:09:58.400Z,98176.84
2022-08-05T23:12:16.369Z,98173.41
2022-08-05T23:14:43.810Z,98172.28
2022-08-05T23:17:34.178Z,98169.97
2022-08-05T23:20:15.567Z,98172.47
2022-08-05T23:22:47.146Z,98175.88
2022-08-05T23:25:17.019Z,98167.25
2022-08-05T23:28:03.048Z,98168.97
2022-08-05T23:30:31.297Z,98172.94
2022-08-05T23:32:58.169Z,98168.69
2022-08-05T23:35:28.671Z,98177.59
2022-08-05T23:38:02.001Z,98178.19
2022-08-05T23:40:28.878Z,98172.06
2022-08-05T23:42:55.793Z,98172.59
2022-08-05T23:45:23.674Z,98169.22
2022-08-05T23:47:53.658Z,98173.66
2022-08-05T23:50:21.129Z,98186.53
2022-08-05T23:52:50.534Z,98185.41
2022-08-05T23:55:19.993Z,98186.66
2022-08-05T23:57:51.027Z,98201.00
